Time;durP1;ratioP1;P1;durP2;ratioP2;P2;SDS_P1;SDS_P2;PMS_P1;PMS_P2;Temp;Humidity;BMP_temperature;BMP_pressure;BME280_temperature;BME280_humidity;BME280_pressure;Samples;Min_cycle;Max_cycle;Signal;HPM_P1;HPM_P2
2023/09/22 00:00:18;;;;;;;;;1.00;1.00;;;;;;;;5036234;28;45546;-78
2023/09/22 00:02:44;;;;;;;;;0.00;0.00;;;;;;;;5021065;28;45374;-79
2023/09/22 00:05:10;;;;;;;;;0.75;0.75;;;;;;;;5050115;28;48147;-79
2023/09/22 00:07:35;;;;;;;;;0.00;0.00;;;;;;;;5056395;28;45533;-77
2023/09/22 00:10:01;;;;;;;;;0.50;0.50;;;;;;;;5041098;28;45378;-78
2023/09/22 00:12:28;;;;;;;;;0.50;0.50;;;;;;;;5040659;28;45535;-78
2023/09/22 00:14:53;;;;;;;;;1.00;0.00;;;;;;;;5041252;28;45302;-78
2023/09/22 00:17:19;;;;;;;;;0.00;0.00;;;;;;;;5041527;28;45349;-78
2023/09/22 00:19:45;;;;;;;;;0.00;0.00;;;;;;;;5041038;28;45184;-79
2023/09/22 00:22:10;;;;;;;;;0.67;0.67;;;;;;;;5040448;28;45142;-79
2023/09/22 00:24:35;;;;;;;;;0.67;0.67;;;;;;;;5040789;28;46291;-79
2023/09/22 00:27:01;;;;;;;;;2.00;1.00;;;;;;;;5041507;28;45414;-79
2023/09/22 00:29:26;;;;;;;;;0.00;0.00;;;;;;;;5035913;28;45212;-79
2023/09/22 00:31:51;;;;;;;;;0.00;0.00;;;;;;;;5019860;28;46751;-79
2023/09/22 00:34:16;;;;;;;;;1.67;0.67;;;;;;;;5025260;28;45213;-78
2023/09/22 00:36:41;;;;;;;;;2.00;0.00;;;;;;;;5020694;28;45304;-79
2023/09/22 00:39:07;;;;;;;;;0.33;0.33;;;;;;;;5021362;28;45449;-78
2023/09/22 00:41:32;;;;;;;;;0.00;0.00;;;;;;;;5020789;28;45382;-79
2023/09/22 00:43:58;;;;;;;;;1.00;1.00;;;;;;;;5021031;28;45470;-79
2023/09/22 00:46:25;;;;;;;;;0.00;0.00;;;;;;;;5036053;28;45789;-79
2023/09/22 00:48:50;;;;;;;;;1.00;1.00;;;;;;;;5036900;28;45323;-78
2023/09/22 00:51:19;;;;;;;;;0.67;0.67;;;;;;;;5021962;28;45335;-78
2023/09/22 00:53:45;;;;;;;;;0.33;0.33;;;;;;;;5022854;28;45954;-79
2023/09/22 00:56:10;;;;;;;;;0.00;0.00;;;;;;;;5020534;28;45205;-78
2023/09/22 00:58:36;;;;;;;;;0.00;0.00;;;;;;;;5019861;28;45164;-78
2023/09/22 01:01:02;;;;;;;;;0.67;0.00;;;;;;;;5038994;28;46516;-78
2023/09/22 01:03:29;;;;;;;;;0.00;0.00;;;;;;;;5039838;28;45326;-79
2023/09/22 01:05:54;;;;;;;;;0.00;0.00;;;;;;;;5038678;28;45511;-78
2023/09/22 01:08:20;;;;;;;;;0.00;0.00;;;;;;;;5039978;28;45309;-79
2023/09/22 01:10:45;;;;;;;;;1.00;0.00;;;;;;;;5038366;28;46396;-78
2023/09/22 01:13:10;;;;;;;;;0.00;0.00;;;;;;;;5038786;28;45276;-78
2023/09/22 01:15:37;;;;;;;;;0.00;0.00;;;;;;;;5039649;28;45361;-78
2023/09/22 01:18:05;;;;;;;;;0.67;0.00;;;;;;;;5039848;28;45195;-78
2023/09/22 01:20:32;;;;;;;;;1.00;1.00;;;;;;;;5039450;28;46500;-79
2023/09/22 01:22:58;;;;;;;;;0.00;0.00;;;;;;;;5039512;28;46174;-79
2023/09/22 01:25:23;;;;;;;;;2.00;0.33;;;;;;;;5039502;28;45419;-79
2023/09/22 01:27:48;;;;;;;;;0.00;0.00;;;;;;;;5039410;28;45494;-79
2023/09/22 01:30:14;;;;;;;;;0.33;0.33;;;;;;;;5020727;28;47169;-78
2023/09/22 01:32:39;;;;;;;;;0.00;0.00;;;;;;;;5019307;28;45606;-78
2023/09/22 01:35:07;;;;;;;;;0.00;0.00;;;;;;;;5019350;28;45296;-78
2023/09/22 01:37:34;;;;;;;;;2.67;0.00;;;;;;;;5018115;28;45257;-79
2023/09/22 01:40:00;;;;;;;;;0.33;0.00;;;;;;;;5019358;28;45204;-77
2023/09/22 01:42:25;;;;;;;;;0.00;0.00;;;;;;;;5019271;28;45995;-78
2023/09/22 01:44:50;;;;;;;;;0.00;0.00;;;;;;;;5019348;28;45141;-78
2023/09/22 01:47:15;;;;;;;;;0.00;0.00;;;;;;;;5019280;28;45314;-78
2023/09/22 01:49:40;;;;;;;;;0.00;0.00;;;;;;;;5020583;28;45373;-79
2023/09/22 01:52:06;;;;;;;;;0.00;0.00;;;;;;;;5034257;28;46914;-78
2023/09/22 01:54:31;;;;;;;;;0.00;0.00;;;;;;;;5019263;28;45192;-78
2023/09/22 01:56:56;;;;;;;;;0.33;0.33;;;;;;;;5035489;28;45350;-78
2023/09/22 01:59:22;;;;;;;;;0.00;0.00;;;;;;;;5020395;28;45535;-78
2023/09/22 02:01:48;;;;;;;;;0.00;0.00;;;;;;;;5019136;28;45474;-78
2023/09/22 02:04:13;;;;;;;;;0.00;0.00;;;;;;;;5019129;28;45560;-79
2023/09/22 02:06:39;;;;;;;;;0.00;0.00;;;;;;;;5019730;28;45344;-79
2023/09/22 02:09:04;;;;;;;;;2.00;1.00;;;;;;;;5018262;28;45387;-78
2023/09/22 02:11:30;;;;;;;;;0.00;0.00;;;;;;;;5034073;28;48073;-78
2023/09/22 02:13:56;;;;;;;;;1.00;1.00;;;;;;;;5017505;28;45287;-78
2023/09/22 02:16:21;;;;;;;;;0.00;0.00;;;;;;;;5034346;28;45480;-79
2023/09/22 02:18:46;;;;;;;;;0.00;0.00;;;;;;;;5034228;28;46206;-78
2023/09/22 02:21:13;;;;;;;;;0.00;0.00;;;;;;;;5019170;28;45478;-78
2023/09/22 02:23:38;;;;;;;;;0.67;0.67;;;;;;;;5037532;28;45234;-78
2023/09/22 02:26:06;;;;;;;;;0.00;0.00;;;;;;;;5023297;28;45408;-79
2023/09/22 02:28:31;;;;;;;;;1.00;0.33;;;;;;;;5021203;28;45418;-79
2023/09/22 02:30:57;;;;;;;;;0.00;0.00;;;;;;;;5022203;28;45234;-78
2023/09/22 02:33:22;;;;;;;;;0.00;0.00;;;;;;;;5022208;28;45478;-78
2023/09/22 02:35:47;;;;;;;;;0.00;0.00;;;;;;;;5037472;28;45281;-79
2023/09/22 02:38:12;;;;;;;;;0.00;0.00;;;;;;;;5022173;28;45321;-78
2023/09/22 02:40:37;;;;;;;;;0.00;0.00;;;;;;;;5044784;28;48188;-78
2023/09/22 02:43:03;;;;;;;;;0.00;0.00;;;;;;;;5041265;28;45363;-79
2023/09/22 02:45:28;;;;;;;;;0.00;0.00;;;;;;;;5040795;28;45491;-78
2023/09/22 02:47:53;;;;;;;;;0.00;0.00;;;;;;;;5041458;28;45781;-79
2023/09/22 02:50:19;;;;;;;;;1.00;1.00;;;;;;;;5040311;28;48291;-78
2023/09/22 02:52:44;;;;;;;;;0.67;0.00;;;;;;;;5040455;28;45538;-78
2023/09/22 02:55:10;;;;;;;;;0.00;0.00;;;;;;;;5040936;28;45364;-78
2023/09/22 02:57:36;;;;;;;;;0.00;0.00;;;;;;;;5056919;28;47138;-78
2023/09/22 03:00:02;;;;;;;;;0.00;0.00;;;;;;;;5041623;28;46302;-79
2023/09/22 03:02:28;;;;;;;;;0.67;0.00;;;;;;;;5040299;28;45447;-79
2023/09/22 03:04:53;;;;;;;;;0.67;0.67;;;;;;;;5041749;28;45183;-77
2023/09/22 03:07:19;;;;;;;;;0.00;0.00;;;;;;;;5041436;28;45427;-78
2023/09/22 03:09:44;;;;;;;;;0.00;0.00;;;;;;;;5040099;28;48269;-78
2023/09/22 03:12:09;;;;;;;;;0.00;0.00;;;;;;;;5053981;28;45439;-78
2023/09/22 03:14:34;;;;;;;;;1.00;1.00;;;;;;;;5041559;28;45604;-78
2023/09/22 03:17:00;;;;;;;;;1.00;0.00;;;;;;;;5041461;28;45266;-78
2023/09/22 03:19:25;;;;;;;;;0.67;0.67;;;;;;;;5041369;28;45310;-77
2023/09/22 03:21:50;;;;;;;;;0.00;0.00;;;;;;;;5041393;28;45254;-78
2023/09/22 03:24:15;;;;;;;;;0.33;0.33;;;;;;;;5041417;28;45243;-78
2023/09/22 03:26:41;;;;;;;;;0.00;0.00;;;;;;;;5041158;28;45220;-78
2023/09/22 03:29:06;;;;;;;;;0.00;0.00;;;;;;;;5033797;28;46405;-77
2023/09/22 03:31:31;;;;;;;;;0.00;0.00;;;;;;;;5020639;28;45324;-77
2023/09/22 03:33:56;;;;;;;;;0.00;0.00;;;;;;;;5019989;28;45329;-78
2023/09/22 03:36:22;;;;;;;;;0.00;0.00;;;;;;;;5020249;28;45426;-78
2023/09/22 03:38:47;;;;;;;;;0.33;0.33;;;;;;;;5021031;28;46465;-77
2023/09/22 03:41:17;;;;;;;;;1.00;0.00;;;;;;;;5027787;28;45391;-77
2023/09/22 03:43:45;;;;;;;;;0.00;0.00;;;;;;;;5040818;28;45276;-77
2023/09/22 03:46:10;;;;;;;;;0.67;0.67;;;;;;;;5038640;28;46067;-77
2023/09/22 03:48:36;;;;;;;;;0.67;0.00;;;;;;;;5039393;28;45353;-78
2023/09/22 03:51:01;;;;;;;;;0.00;0.00;;;;;;;;5040861;28;45274;-77
2023/09/22 03:53:27;;;;;;;;;1.00;0.00;;;;;;;;5040992;28;45562;-78
2023/09/22 03:55:52;;;;;;;;;0.33;0.33;;;;;;;;5040875;28;45314;-77
2023/09/22 03:58:19;;;;;;;;;2.00;0.00;;;;;;;;5039330;28;46878;-77
2023/09/22 04:00:44;;;;;;;;;0.33;0.33;;;;;;;;5040883;28;45438;-77
2023/09/22 04:03:09;;;;;;;;;1.00;1.00;;;;;;;;5040660;28;45393;-77
2023/09/22 04:05:36;;;;;;;;;0.00;0.00;;;;;;;;5040496;28;45363;-77
2023/09/22 04:08:01;;;;;;;;;1.00;0.00;;;;;;;;5039622;28;47329;-78
2023/09/22 04:10:26;;;;;;;;;5.00;3.67;;;;;;;;5039205;28;45280;-78
2023/09/22 04:12:51;;;;;;;;;0.00;0.00;;;;;;;;5040256;28;45466;-77
2023/09/22 04:15:17;;;;;;;;;2.67;1.67;;;;;;;;5040791;28;45378;-78
2023/09/22 04:17:42;;;;;;;;;0.00;0.00;;;;;;;;5039420;28;46029;-78
2023/09/22 04:20:10;;;;;;;;;0.67;0.00;;;;;;;;5039573;28;45684;-78
2023/09/22 04:22:35;;;;;;;;;0.67;0.00;;;;;;;;5040734;28;45258;-77
2023/09/22 04:25:02;;;;;;;;;1.00;1.00;;;;;;;;5040601;28;45774;-77
2023/09/22 04:27:36;;;;;;;;;1.67;1.67;;;;;;;;5038946;28;47203;-77
2023/09/22 04:30:07;;;;;;;;;1.00;1.00;;;;;;;;5025221;28;45422;-77
2023/09/22 04:32:33;;;;;;;;;0.00;0.00;;;;;;;;5020254;28;45250;-77
2023/09/22 04:35:01;;;;;;;;;0.00;0.00;;;;;;;;5020024;28;45227;-78
2023/09/22 04:37:26;;;;;;;;;1.00;1.00;;;;;;;;5020327;28;45212;-78
2023/09/22 04:39:52;;;;;;;;;2.33;2.33;;;;;;;;5039838;28;45285;-78
2023/09/22 04:42:18;;;;;;;;;1.00;1.00;;;;;;;;5054733;28;44663;-76
2023/09/22 04:44:43;;;;;;;;;1.00;1.00;;;;;;;;5059148;28;45953;-78
2023/09/22 04:47:08;;;;;;;;;2.00;1.00;;;;;;;;5072472;28;47562;-78
2023/09/22 04:49:33;;;;;;;;;1.33;1.33;;;;;;;;5056110;28;45257;-78
2023/09/22 04:51:58;;;;;;;;;1.67;1.67;;;;;;;;5057632;28;45282;-79
2023/09/22 04:54:24;;;;;;;;;0.33;0.33;;;;;;;;5054963;28;45455;-78
2023/09/22 04:56:49;;;;;;;;;2.33;1.33;;;;;;;;5056606;28;46095;-78
2023/09/22 04:59:17;;;;;;;;;1.00;1.00;;;;;;;;5052055;28;45332;-77
2023/09/22 05:01:43;;;;;;;;;3.67;2.67;;;;;;;;5057795;28;45112;-78
2023/09/22 05:04:08;;;;;;;;;1.00;1.00;;;;;;;;5052517;28;45293;-77
2023/09/22 05:06:33;;;;;;;;;1.00;1.00;;;;;;;;5047262;28;45549;-76
2023/09/22 05:08:59;;;;;;;;;1.67;1.33;;;;;;;;5050640;28;44883;-76
2023/09/22 05:11:24;;;;;;;;;3.00;2.00;;;;;;;;5055234;28;44703;-77
2023/09/22 05:13:49;;;;;;;;;1.00;1.00;;;;;;;;5060532;28;46129;-76
2023/09/22 05:16:14;;;;;;;;;2.00;2.00;;;;;;;;5044494;28;46094;-77
2023/09/22 05:18:40;;;;;;;;;1.00;1.00;;;;;;;;5051667;28;45429;-79
2023/09/22 05:21:05;;;;;;;;;2.00;2.00;;;;;;;;5041274;28;45375;-79
2023/09/22 05:23:34;;;;;;;;;3.33;2.67;;;;;;;;5039624;28;47265;-78
2023/09/22 05:25:59;;;;;;;;;1.00;1.00;;;;;;;;5040859;28;45391;-76
2023/09/22 05:28:24;;;;;;;;;2.00;2.00;;;;;;;;5039913;28;45342;-80
2023/09/22 05:30:49;;;;;;;;;0.00;0.00;;;;;;;;5039490;28;45396;-75
2023/09/22 05:33:15;;;;;;;;;2.00;2.00;;;;;;;;5038573;28;45545;-76
2023/09/22 05:35:40;;;;;;;;;2.00;1.67;;;;;;;;5054179;28;47147;-75
2023/09/22 05:38:06;;;;;;;;;1.00;1.00;;;;;;;;5039454;28;45288;-76
2023/09/22 05:40:35;;;;;;;;;2.00;1.67;;;;;;;;5038408;28;45373;-77
2023/09/22 05:43:10;;;;;;;;;1.00;1.00;;;;;;;;5036594;28;46410;-79
2023/09/22 05:45:35;;;;;;;;;0.00;0.00;;;;;;;;5038456;28;45331;-78
2023/09/22 05:48:01;;;;;;;;;2.67;2.00;;;;;;;;5037625;28;45521;-79
2023/09/22 05:50:26;;;;;;;;;2.67;1.33;;;;;;;;5037574;28;45344;-78
2023/09/22 05:52:51;;;;;;;;;1.33;1.00;;;;;;;;5039111;28;45279;-78
2023/09/22 05:55:20;;;;;;;;;2.00;0.67;;;;;;;;5039142;28;45316;-78
2023/09/22 05:57:50;;;;;;;;;1.67;1.67;;;;;;;;5034183;28;45396;-79
2023/09/22 06:00:17;;;;;;;;;0.00;0.00;;;;;;;;5040081;28;45250;-77
2023/09/22 06:02:49;;;;;;;;;2.00;1.00;;;;;;;;5041111;28;45375;-79
2023/09/22 06:05:15;;;;;;;;;2.00;1.00;;;;;;;;5039783;28;47223;-77
2023/09/22 06:07:40;;;;;;;;;2.00;1.00;;;;;;;;5042041;28;45229;-77
2023/09/22 06:10:06;;;;;;;;;2.33;1.33;;;;;;;;5042643;28;45710;-77
2023/09/22 06:12:31;;;;;;;;;2.00;2.00;;;;;;;;5042174;28;45302;-76
2023/09/22 06:14:59;;;;;;;;;3.33;2.00;;;;;;;;5040952;28;47403;-78
2023/09/22 06:17:25;;;;;;;;;1.00;1.00;;;;;;;;5042398;28;45358;-79
2023/09/22 06:19:50;;;;;;;;;1.33;1.00;;;;;;;;5041713;28;45468;-77
2023/09/22 06:22:15;;;;;;;;;1.33;1.33;;;;;;;;5041051;28;45374;-77
2023/09/22 06:24:40;;;;;;;;;1.00;1.00;;;;;;;;5025381;28;47199;-75
2023/09/22 06:27:05;;;;;;;;;2.00;2.00;;;;;;;;5024681;28;45284;-77
2023/09/22 06:29:31;;;;;;;;;2.00;0.00;;;;;;;;5023965;28;45316;-79
2023/09/22 06:31:56;;;;;;;;;1.33;1.33;;;;;;;;5022070;28;46826;-77
2023/09/22 06:34:21;;;;;;;;;2.00;1.00;;;;;;;;5038197;28;47076;-78
2023/09/22 06:36:47;;;;;;;;;0.33;0.33;;;;;;;;5029097;28;45387;-79
2023/09/22 06:39:12;;;;;;;;;2.00;2.00;;;;;;;;5042079;28;45474;-76
2023/09/22 06:41:37;;;;;;;;;1.67;1.67;;;;;;;;5041644;28;45267;-78
2023/09/22 06:44:03;;;;;;;;;0.50;0.50;;;;;;;;5041373;28;45240;-76
2023/09/22 06:46:28;;;;;;;;;0.00;0.00;;;;;;;;5041879;28;45218;-75
2023/09/22 06:48:53;;;;;;;;;2.00;1.00;;;;;;;;5041362;28;45327;-75
2023/09/22 06:51:18;;;;;;;;;2.00;0.33;;;;;;;;5038490;28;46973;-75
2023/09/22 06:53:44;;;;;;;;;0.33;0.33;;;;;;;;5041301;28;45182;-75
2023/09/22 06:56:09;;;;;;;;;2.33;0.33;;;;;;;;5057161;28;45230;-75
2023/09/22 06:58:36;;;;;;;;;0.00;0.00;;;;;;;;5041028;28;45391;-75
2023/09/22 07:01:09;;;;;;;;;0.33;0.33;;;;;;;;5041262;28;45374;-75
2023/09/22 07:03:35;;;;;;;;;2.33;0.00;;;;;;;;5041214;28;45261;-75
2023/09/22 07:06:01;;;;;;;;;0.75;0.75;;;;;;;;5039775;28;45324;-75
2023/09/22 07:08:26;;;;;;;;;0.00;0.00;;;;;;;;5040617;28;45316;-75
2023/09/22 07:10:59;;;;;;;;;0.00;0.00;;;;;;;;5039976;28;46027;-75
2023/09/22 07:13:24;;;;;;;;;0.00;0.00;;;;;;;;5041395;28;45635;-75
2023/09/22 07:15:53;;;;;;;;;0.00;0.00;;;;;;;;5040260;28;45240;-75
2023/09/22 07:18:18;;;;;;;;;0.00;0.00;;;;;;;;5040248;28;45371;-76
2023/09/22 07:20:44;;;;;;;;;1.25;0.00;;;;;;;;5041521;28;45480;-75
2023/09/22 07:23:09;;;;;;;;;0.00;0.00;;;;;;;;5041448;28;45291;-75
2023/09/22 07:25:34;;;;;;;;;1.00;1.00;;;;;;;;5047937;28;45963;-74
2023/09/22 07:28:00;;;;;;;;;0.00;0.00;;;;;;;;5056662;28;45321;-76
2023/09/22 07:30:28;;;;;;;;;0.00;0.00;;;;;;;;5020461;28;45345;-76
2023/09/22 07:32:53;;;;;;;;;0.33;0.33;;;;;;;;5019676;28;45652;-77
2023/09/22 07:35:18;;;;;;;;;2.00;1.00;;;;;;;;5024416;28;45513;-77
2023/09/22 07:37:45;;;;;;;;;0.00;0.00;;;;;;;;5038999;28;45432;-76
2023/09/22 07:40:10;;;;;;;;;3.00;2.00;;;;;;;;5040261;28;45443;-75
2023/09/22 07:42:37;;;;;;;;;3.00;1.00;;;;;;;;5038748;28;47418;-76
2023/09/22 07:45:02;;;;;;;;;1.33;0.33;;;;;;;;5040304;28;45421;-75
2023/09/22 07:47:28;;;;;;;;;1.00;0.00;;;;;;;;5040521;28;45355;-75
2023/09/22 07:49:57;;;;;;;;;0.75;0.25;;;;;;;;5040727;28;45876;-76
2023/09/22 07:52:24;;;;;;;;;2.00;1.33;;;;;;;;5040834;28;46386;-75
2023/09/22 07:54:50;;;;;;;;;0.33;0.33;;;;;;;;5039550;28;45286;-76
2023/09/22 07:57:15;;;;;;;;;2.00;1.25;;;;;;;;5040456;28;45284;-76
2023/09/22 07:59:41;;;;;;;;;1.33;1.00;;;;;;;;5040245;28;45526;-76
2023/09/22 08:02:07;;;;;;;;;1.00;1.00;;;;;;;;5040748;28;45263;-76
2023/09/22 08:04:33;;;;;;;;;1.00;1.00;;;;;;;;5040286;28;45240;-78
2023/09/22 08:06:59;;;;;;;;;4.67;2.33;;;;;;;;5040578;28;45260;-75
2023/09/22 08:09:24;;;;;;;;;0.50;0.50;;;;;;;;5040562;28;45334;-76
2023/09/22 08:11:49;;;;;;;;;0.00;0.00;;;;;;;;5040272;28;45363;-79
2023/09/22 08:14:15;;;;;;;;;0.67;0.00;;;;;;;;5040467;28;45369;-77
2023/09/22 08:16:40;;;;;;;;;0.00;0.00;;;;;;;;5038720;28;45373;-77
2023/09/22 08:19:10;;;;;;;;;3.33;1.00;;;;;;;;5026705;28;46066;-77
2023/09/22 08:21:35;;;;;;;;;2.00;0.67;;;;;;;;5021977;28;48217;-79
2023/09/22 08:24:00;;;;;;;;;0.00;0.00;;;;;;;;5025977;28;45326;-79
2023/09/22 08:26:26;;;;;;;;;1.00;0.00;;;;;;;;5038480;28;45524;-77
2023/09/22 08:28:52;;;;;;;;;0.00;0.00;;;;;;;;5033819;28;45421;-78
2023/09/22 08:31:17;;;;;;;;;0.00;0.00;;;;;;;;5029384;28;45428;-79
2023/09/22 08:33:42;;;;;;;;;0.50;0.50;;;;;;;;5038733;28;45339;-78
2023/09/22 08:36:08;;;;;;;;;0.33;0.33;;;;;;;;5039095;28;45329;-77
2023/09/22 08:38:33;;;;;;;;;0.00;0.00;;;;;;;;5039488;28;45373;-78
2023/09/22 08:41:05;;;;;;;;;0.00;0.00;;;;;;;;5039434;28;46103;-78
2023/09/22 08:43:30;;;;;;;;;0.00;0.00;;;;;;;;5039453;28;45271;-76
2023/09/22 08:45:56;;;;;;;;;0.00;0.00;;;;;;;;5040041;28;45464;-77
2023/09/22 08:48:24;;;;;;;;;0.00;0.00;;;;;;;;5040037;28;45243;-79
2023/09/22 08:50:49;;;;;;;;;1.00;0.00;;;;;;;;5054766;28;47289;-79
2023/09/22 08:53:14;;;;;;;;;0.00;0.00;;;;;;;;5039772;28;45346;-79
2023/09/22 08:55:40;;;;;;;;;0.75;0.00;;;;;;;;5040024;28;45284;-78
2023/09/22 08:58:05;;;;;;;;;0.00;0.00;;;;;;;;5039642;28;45300;-78
2023/09/22 09:00:30;;;;;;;;;0.75;0.00;;;;;;;;5039288;28;45648;-77
2023/09/22 09:02:57;;;;;;;;;0.50;0.00;;;;;;;;5054276;28;45597;-76
2023/09/22 09:05:30;;;;;;;;;0.00;0.00;;;;;;;;5026909;28;45531;-77
2023/09/22 09:07:56;;;;;;;;;0.00;0.00;;;;;;;;5042958;28;47573;-76
2023/09/22 09:10:25;;;;;;;;;0.00;0.00;;;;;;;;5029189;28;45423;-75
2023/09/22 09:12:51;;;;;;;;;0.25;0.25;;;;;;;;5036505;28;45340;-76
2023/09/22 09:15:16;;;;;;;;;3.50;1.00;;;;;;;;5036495;28;45620;-76
2023/09/22 09:17:41;;;;;;;;;0.00;0.00;;;;;;;;5034406;28;45964;-76
2023/09/22 09:20:07;;;;;;;;;0.25;0.25;;;;;;;;5036887;28;45445;-75
2023/09/22 09:22:33;;;;;;;;;0.00;0.00;;;;;;;;5036739;28;45221;-76
2023/09/22 09:25:02;;;;;;;;;1.00;0.00;;;;;;;;5036046;28;45546;-79
2023/09/22 09:27:28;;;;;;;;;0.50;0.00;;;;;;;;5037892;28;45358;-79
2023/09/22 09:29:53;;;;;;;;;0.00;0.00;;;;;;;;5025926;28;45320;-75
2023/09/22 09:32:25;;;;;;;;;0.25;0.25;;;;;;;;5018362;28;45222;-76
2023/09/22 09:34:51;;;;;;;;;0.25;0.25;;;;;;;;5020090;28;45549;-76
2023/09/22 09:37:17;;;;;;;;;0.00;0.00;;;;;;;;5022204;28;45730;-76
2023/09/22 09:39:43;;;;;;;;;0.00;0.00;;;;;;;;5021295;28;46322;-75
2023/09/22 09:42:09;;;;;;;;;0.00;0.00;;;;;;;;5022465;28;45243;-76
2023/09/22 09:44:35;;;;;;;;;0.00;0.00;;;;;;;;5025222;28;45495;-76
2023/09/22 09:47:03;;;;;;;;;0.00;0.00;;;;;;;;5041545;28;45335;-78
2023/09/22 09:49:30;;;;;;;;;1.00;0.00;;;;;;;;5041639;28;45408;-76
2023/09/22 09:51:55;;;;;;;;;0.00;0.00;;;;;;;;5042461;28;45342;-77
2023/09/22 09:54:21;;;;;;;;;0.00;0.00;;;;;;;;5041491;28;45445;-75
2023/09/22 09:56:47;;;;;;;;;0.50;0.50;;;;;;;;5040460;28;46625;-77
2023/09/22 09:59:14;;;;;;;;;1.25;0.00;;;;;;;;5041458;28;46180;-81
2023/09/22 10:01:40;;;;;;;;;0.00;0.00;;;;;;;;5043012;28;45224;-81
2023/09/22 10:04:07;;;;;;;;;0.00;0.00;;;;;;;;5041016;28;45615;-82
2023/09/22 10:06:32;;;;;;;;;0.00;0.00;;;;;;;;5042417;28;45342;-80
2023/09/22 10:08:58;;;;;;;;;0.67;0.67;;;;;;;;5040926;28;47019;-83
2023/09/22 10:11:23;;;;;;;;;0.00;0.00;;;;;;;;5043090;28;45440;-81
2023/09/22 10:13:48;;;;;;;;;0.00;0.00;;;;;;;;5044582;28;45425;-80
2023/09/22 10:16:26;;;;;;;;;1.00;1.00;;;;;;;;5045335;28;45401;-82
2023/09/22 10:18:55;;;;;;;;;0.00;0.00;;;;;;;;5041233;28;48333;-84
2023/09/22 10:21:33;;;;;;;;;1.00;0.25;;;;;;;;5041719;28;45295;-80
2023/09/22 10:24:17;;;;;;;;;0.50;0.00;;;;;;;;5040317;28;45410;-80
2023/09/22 10:27:07;;;;;;;;;0.00;0.00;;;;;;;;5041907;28;45601;-81
2023/09/22 10:29:33;;;;;;;;;0.50;0.50;;;;;;;;5042487;28;45398;-79
2023/09/22 10:34:51;;;;;;;;;0.00;0.00;;;;;;;;5041034;28;45469;-80
2023/09/22 10:37:20;;;;;;;;;2.00;2.00;;;;;;;;5041722;28;45382;-80
2023/09/22 10:39:48;;;;;;;;;1.00;1.00;;;;;;;;5042035;28;45336;-78
2023/09/22 10:42:13;;;;;;;;;0.00;0.00;;;;;;;;5042424;28;45397;-79
2023/09/22 10:44:58;;;;;;;;;0.00;0.00;;;;;;;;5042190;28;45547;-78
2023/09/22 10:47:24;;;;;;;;;0.75;0.75;;;;;;;;5041176;28;46116;-76
2023/09/22 10:49:49;;;;;;;;;0.00;0.00;;;;;;;;5031242;28;46096;-77
2023/09/22 10:52:18;;;;;;;;;0.00;0.00;;;;;;;;5038835;28;45790;-79
2023/09/22 10:54:43;;;;;;;;;0.00;0.00;;;;;;;;5037346;28;45673;-77
2023/09/22 10:57:21;;;;;;;;;0.00;0.00;;;;;;;;5039247;28;47368;-78
2023/09/22 10:59:46;;;;;;;;;0.00;0.00;;;;;;;;5035831;28;46318;-79
2023/09/22 11:02:20;;;;;;;;;0.25;0.25;;;;;;;;5032846;28;45342;-82
2023/09/22 11:04:47;;;;;;;;;0.00;0.00;;;;;;;;5030132;28;45404;-79
2023/09/22 11:07:12;;;;;;;;;0.00;0.00;;;;;;;;5052846;28;46361;-78
2023/09/22 11:09:37;;;;;;;;;0.00;0.00;;;;;;;;5039936;28;45519;-79
2023/09/22 11:12:02;;;;;;;;;0.00;0.00;;;;;;;;5038973;28;45440;-79
2023/09/22 11:14:28;;;;;;;;;0.00;0.00;;;;;;;;5034017;28;45481;-80
2023/09/22 11:16:53;;;;;;;;;0.00;0.00;;;;;;;;5035488;28;45500;-81
2023/09/22 11:19:18;;;;;;;;;2.00;1.00;;;;;;;;5052299;28;47379;-79
2023/09/22 11:21:46;;;;;;;;;0.50;0.00;;;;;;;;5040267;28;45958;-79
2023/09/22 11:24:11;;;;;;;;;0.00;0.00;;;;;;;;5038510;28;45529;-79
2023/09/22 11:26:40;;;;;;;;;0.00;0.00;;;;;;;;5040058;28;45593;-80
2023/09/22 11:29:05;;;;;;;;;0.00;0.00;;;;;;;;5035289;28;47028;-79
2023/09/22 11:31:32;;;;;;;;;0.00;0.00;;;;;;;;5035031;28;45446;-78
2023/09/22 11:34:04;;;;;;;;;0.00;0.00;;;;;;;;5035110;28;45636;-79
2023/09/22 11:36:45;;;;;;;;;0.00;0.00;;;;;;;;5037714;28;45401;-77
2023/09/22 11:39:22;;;;;;;;;1.67;1.67;;;;;;;;5033524;28;48494;-77
2023/09/22 11:41:48;;;;;;;;;0.00;0.00;;;;;;;;5035101;28;45515;-78
2023/09/22 11:44:14;;;;;;;;;1.00;1.00;;;;;;;;5036016;28;45391;-80
2023/09/22 11:46:44;;;;;;;;;0.33;0.33;;;;;;;;5035081;28;47431;-79
2023/09/22 11:49:12;;;;;;;;;1.00;1.00;;;;;;;;5036754;28;45491;-79
2023/09/22 11:51:40;;;;;;;;;3.00;0.00;;;;;;;;5037438;28;45417;-78
2023/09/22 11:54:09;;;;;;;;;2.67;2.00;;;;;;;;5032688;28;45474;-78
2023/09/22 11:56:34;;;;;;;;;2.00;1.00;;;;;;;;5038050;28;45520;-78
2023/09/22 11:59:06;;;;;;;;;0.33;0.33;;;;;;;;5038348;28;45512;-85
2023/09/22 12:01:31;;;;;;;;;1.33;1.33;;;;;;;;5039480;28;45334;-79
2023/09/22 12:03:57;;;;;;;;;0.00;0.00;;;;;;;;5033686;28;45464;-78
2023/09/22 12:06:22;;;;;;;;;1.67;1.67;;;;;;;;5054513;28;47287;-80
2023/09/22 12:08:48;;;;;;;;;2.00;2.00;;;;;;;;5048275;28;47036;-76
2023/09/22 12:11:13;;;;;;;;;0.00;0.00;;;;;;;;5038265;28;45326;-78
2023/09/22 12:13:40;;;;;;;;;0.00;0.00;;;;;;;;5029724;28;45478;-82
2023/09/22 12:16:05;;;;;;;;;0.00;0.00;;;;;;;;5017685;28;45575;-81
2023/09/22 12:18:30;;;;;;;;;0.00;0.00;;;;;;;;5018364;28;45471;-80
2023/09/22 12:20:56;;;;;;;;;0.00;0.00;;;;;;;;5019789;28;45402;-79
2023/09/22 12:23:21;;;;;;;;;0.00;0.00;;;;;;;;5026253;28;45298;-81
2023/09/22 12:25:46;;;;;;;;;0.00;0.00;;;;;;;;5038291;28;46104;-80
2023/09/22 12:28:11;;;;;;;;;0.00;0.00;;;;;;;;5039358;28;46059;-78
2023/09/22 12:30:37;;;;;;;;;0.00;0.00;;;;;;;;5022124;28;46689;-79
2023/09/22 12:33:02;;;;;;;;;0.00;0.00;;;;;;;;5026841;28;45466;-78
2023/09/22 12:35:28;;;;;;;;;0.00;0.00;;;;;;;;5031851;28;47239;-78
2023/09/22 12:37:54;;;;;;;;;0.25;0.00;;;;;;;;5027288;28;47022;-78
2023/09/22 12:40:19;;;;;;;;;0.00;0.00;;;;;;;;5027287;28;45449;-78
2023/09/22 12:42:44;;;;;;;;;0.00;0.00;;;;;;;;5028779;28;45805;-79
2023/09/22 12:45:09;;;;;;;;;0.00;0.00;;;;;;;;5029952;28;45631;-80
2023/09/22 12:47:34;;;;;;;;;0.75;0.00;;;;;;;;5049667;28;47142;-78
2023/09/22 12:50:04;;;;;;;;;0.00;0.00;;;;;;;;5021889;28;45333;-87
2023/09/22 12:52:30;;;;;;;;;0.00;0.00;;;;;;;;5042990;28;45305;-83
2023/09/22 12:54:56;;;;;;;;;0.00;0.00;;;;;;;;5036947;28;45492;-84
2023/09/22 12:57:21;;;;;;;;;0.00;0.00;;;;;;;;5039087;28;45567;-85
2023/09/22 12:59:47;;;;;;;;;0.00;0.00;;;;;;;;5039017;28;45338;-82
2023/09/22 13:02:12;;;;;;;;;0.00;0.00;;;;;;;;5039387;28;45299;-81
2023/09/22 13:04:37;;;;;;;;;0.00;0.00;;;;;;;;5036925;28;45543;-82
2023/09/22 13:07:02;;;;;;;;;0.00;0.00;;;;;;;;5037949;28;45426;-81
2023/09/22 13:09:29;;;;;;;;;0.00;0.00;;;;;;;;5038234;28;45571;-79
2023/09/22 13:11:54;;;;;;;;;0.00;0.00;;;;;;;;5039115;28;45255;-81
2023/09/22 13:14:20;;;;;;;;;0.00;0.00;;;;;;;;5038252;28;46121;-81
2023/09/22 13:16:45;;;;;;;;;0.25;0.00;;;;;;;;5040270;28;45266;-79
2023/09/22 13:19:10;;;;;;;;;0.75;0.00;;;;;;;;5037824;28;45336;-79
2023/09/22 13:21:36;;;;;;;;;0.00;0.00;;;;;;;;5039352;28;45573;-78
2023/09/22 13:24:01;;;;;;;;;0.00;0.00;;;;;;;;5038664;28;45380;-79
2023/09/22 13:26:26;;;;;;;;;0.00;0.00;;;;;;;;5037819;28;45565;-78
2023/09/22 13:28:54;;;;;;;;;0.00;0.00;;;;;;;;5034061;28;45479;-80
2023/09/22 13:31:20;;;;;;;;;0.00;0.00;;;;;;;;5025921;28;45260;-79
2023/09/22 13:33:45;;;;;;;;;0.00;0.00;;;;;;;;5038817;28;45363;-81
2023/09/22 13:36:17;;;;;;;;;0.00;0.00;;;;;;;;5039041;28;46483;-81
2023/09/22 13:38:42;;;;;;;;;0.00;0.00;;;;;;;;5036365;28;45233;-81
2023/09/22 13:41:11;;;;;;;;;0.00;0.00;;;;;;;;5038209;28;45632;-82
2023/09/22 13:43:36;;;;;;;;;0.00;0.00;;;;;;;;5036869;28;46145;-78
2023/09/22 13:46:01;;;;;;;;;0.00;0.00;;;;;;;;5037566;28;45655;-77
2023/09/22 13:48:26;;;;;;;;;0.00;0.00;;;;;;;;5039123;28;45318;-79
2023/09/22 13:50:51;;;;;;;;;0.00;0.00;;;;;;;;5037968;28;45319;-79
2023/09/22 13:53:17;;;;;;;;;0.00;0.00;;;;;;;;5039218;28;45306;-77
2023/09/22 13:55:43;;;;;;;;;0.00;0.00;;;;;;;;5039091;28;45615;-78
2023/09/22 13:58:09;;;;;;;;;0.00;0.00;;;;;;;;5038313;28;45310;-76
2023/09/22 14:00:35;;;;;;;;;0.00;0.00;;;;;;;;5038669;28;45255;-76
2023/09/22 14:03:00;;;;;;;;;0.00;0.00;;;;;;;;5038786;28;45246;-80
2023/09/22 14:05:26;;;;;;;;;0.00;0.00;;;;;;;;5039059;28;46510;-78
2023/09/22 14:07:52;;;;;;;;;0.00;0.00;;;;;;;;5038600;28;45334;-78
2023/09/22 14:10:18;;;;;;;;;0.00;0.00;;;;;;;;5038561;28;45579;-78
2023/09/22 14:12:43;;;;;;;;;0.00;0.00;;;;;;;;5037907;28;45403;-78
2023/09/22 14:15:09;;;;;;;;;0.00;0.00;;;;;;;;5038086;28;45753;-78
2023/09/22 14:17:34;;;;;;;;;0.00;0.00;;;;;;;;5038167;28;45417;-77
2023/09/22 14:19:59;;;;;;;;;0.00;0.00;;;;;;;;5037659;28;45354;-79
2023/09/22 14:22:24;;;;;;;;;0.00;0.00;;;;;;;;5040360;28;47088;-77
2023/09/22 14:24:52;;;;;;;;;0.00;0.00;;;;;;;;5042036;28;45410;-77
2023/09/22 14:27:17;;;;;;;;;0.00;0.00;;;;;;;;5040972;28;45515;-77
2023/09/22 14:29:42;;;;;;;;;0.00;0.00;;;;;;;;5029864;28;45261;-77
2023/09/22 14:32:07;;;;;;;;;0.00;0.00;;;;;;;;5022335;28;45316;-77
2023/09/22 14:34:33;;;;;;;;;0.00;0.00;;;;;;;;5041047;28;45345;-75
2023/09/22 14:36:58;;;;;;;;;0.00;0.00;;;;;;;;5040374;28;45401;-78
2023/09/22 14:39:23;;;;;;;;;0.00;0.00;;;;;;;;5042490;28;45146;-77